sensor_id;sensor_type;location;lat;lon;timestamp;P1;durP1;ratioP1;P2;durP2;ratioP2
61003;SDS011;46889;37.310;13.582;2022-10-30T00:00:43;23.40;;;10.57;;
61003;SDS011;46889;37.310;13.582;2022-10-30T00:03:11;32.03;;;9.90;;
61003;SDS011;46889;37.310;13.582;2022-10-30T00:05:42;18.95;;;10.30;;
61003;SDS011;46889;37.310;13.582;2022-10-30T00:08:17;27.88;;;10.48;;
61003;SDS011;46889;37.310;13.582;2022-10-30T00:10:44;32.78;;;10.18;;
61003;SDS011;46889;37.310;13.582;2022-10-30T00:13:12;29.98;;;9.90;;
61003;SDS011;46889;37.310;13.582;2022-10-30T00:18:14;23.48;;;10.35;;
61003;SDS011;46889;37.310;13.582;2022-10-30T00:20:40;24.33;;;9.95;;
61003;SDS011;46889;37.310;13.582;2022-10-30T00:23:09;24.65;;;10.05;;
61003;SDS011;46889;37.310;13.582;2022-10-30T00:25:38;28.73;;;9.02;;
61003;SDS011;46889;37.310;13.582;2022-10-30T00:28:05;29.58;;;10.02;;
61003;SDS011;46889;37.310;13.582;2022-10-30T00:30:33;26.70;;;9.40;;
61003;SDS011;46889;37.310;13.582;2022-10-30T00:33:00;25.10;;;9.70;;
61003;SDS011;46889;37.310;13.582;2022-10-30T00:35:27;26.13;;;8.93;;
61003;SDS011;46889;37.310;13.582;2022-10-30T00:37:55;23.67;;;9.20;;
61003;SDS011;46889;37.310;13.582;2022-10-30T00:40:24;28.55;;;8.95;;
61003;SDS011;46889;37.310;13.582;2022-10-30T00:42:50;23.85;;;8.63;;
61003;SDS011;46889;37.310;13.582;2022-10-30T00:45:18;21.25;;;9.02;;
61003;SDS011;46889;37.310;13.582;2022-10-30T00:47:45;23.55;;;9.38;;
61003;SDS011;46889;37.310;13.582;2022-10-30T00:50:29;25.85;;;8.57;;
61003;SDS011;46889;37.310;13.582;2022-10-30T00:53:01;30.48;;;9.38;;
61003;SDS011;46889;37.310;13.582;2022-10-30T00:55:32;24.52;;;8.70;;
61003;SDS011;46889;37.310;13.582;2022-10-30T00:58:24;23.02;;;9.27;;
61003;SDS011;46889;37.310;13.582;2022-10-30T01:00:57;29.80;;;9.55;;
61003;SDS011;46889;37.310;13.582;2022-10-30T01:03:27;22.98;;;8.98;;
61003;SDS011;46889;37.310;13.582;2022-10-30T01:05:57;23.40;;;8.23;;
61003;SDS011;46889;37.310;13.582;2022-10-30T01:08:27;18.85;;;9.02;;
61003;SDS011;46889;37.310;13.582;2022-10-30T01:10:54;28.83;;;9.00;;
61003;SDS011;46889;37.310;13.582;2022-10-30T01:13:23;24.77;;;8.30;;
61003;SDS011;46889;37.310;13.582;2022-10-30T01:18:49;22.40;;;8.32;;
61003;SDS011;46889;37.310;13.582;2022-10-30T01:27:06;15.23;;;7.97;;
61003;SDS011;46889;37.310;13.582;2022-10-30T01:40:23;16.83;;;7.93;;
61003;SDS011;46889;37.310;13.582;2022-10-30T01:42:51;18.90;;;7.28;;
61003;SDS011;46889;37.310;13.582;2022-10-30T01:50:55;14.57;;;7.40;;
61003;SDS011;46889;37.310;13.582;2022-10-30T01:59:12;20.40;;;7.15;;
61003;SDS011;46889;37.310;13.582;2022-10-30T02:01:43;15.13;;;6.88;;
61003;SDS011;46889;37.310;13.582;2022-10-30T02:04:10;14.18;;;7.35;;
61003;SDS011;46889;37.310;13.582;2022-10-30T02:06:38;15.88;;;7.50;;
61003;SDS011;46889;37.310;13.582;2022-10-30T02:09:05;15.48;;;6.53;;
61003;SDS011;46889;37.310;13.582;2022-10-30T02:14:00;15.40;;;6.53;;
61003;SDS011;46889;37.310;13.582;2022-10-30T02:16:31;14.57;;;7.22;;
61003;SDS011;46889;37.310;13.582;2022-10-30T02:18:59;13.38;;;6.35;;
61003;SDS011;46889;37.310;13.582;2022-10-30T02:21:26;17.60;;;6.88;;
61003;SDS011;46889;37.310;13.582;2022-10-30T02:23:54;11.18;;;6.07;;
61003;SDS011;46889;37.310;13.582;2022-10-30T02:26:21;13.57;;;6.35;;
61003;SDS011;46889;37.310;13.582;2022-10-30T02:28:47;17.10;;;6.57;;
61003;SDS011;46889;37.310;13.582;2022-10-30T02:31:13;16.27;;;5.83;;
61003;SDS011;46889;37.310;13.582;2022-10-30T02:33:42;16.30;;;5.85;;
61003;SDS011;46889;37.310;13.582;2022-10-30T02:36:10;17.90;;;6.55;;
61003;SDS011;46889;37.310;13.582;2022-10-30T02:38:45;13.27;;;5.72;;
61003;SDS011;46889;37.310;13.582;2022-10-30T02:41:11;13.35;;;5.90;;
61003;SDS011;46889;37.310;13.582;2022-10-30T02:43:38;24.35;;;6.60;;
61003;SDS011;46889;37.310;13.582;2022-10-30T02:46:04;12.82;;;5.47;;
61003;SDS011;46889;37.310;13.582;2022-10-30T02:48:30;16.38;;;6.13;;
61003;SDS011;46889;37.310;13.582;2022-10-30T02:51:00;15.13;;;5.63;;
61003;SDS011;46889;37.310;13.582;2022-10-30T02:53:28;18.33;;;5.93;;
61003;SDS011;46889;37.310;13.582;2022-10-30T02:55:55;19.30;;;5.85;;
61003;SDS011;46889;37.310;13.582;2022-10-30T02:58:27;15.52;;;5.05;;
61003;SDS011;46889;37.310;13.582;2022-10-30T03:00:53;16.55;;;5.68;;
61003;SDS011;46889;37.310;13.582;2022-10-30T03:03:19;16.13;;;6.03;;
61003;SDS011;46889;37.310;13.582;2022-10-30T03:05:45;15.13;;;5.78;;
61003;SDS011;46889;37.310;13.582;2022-10-30T03:08:13;13.77;;;5.22;;
61003;SDS011;46889;37.310;13.582;2022-10-30T03:10:39;15.68;;;5.47;;
61003;SDS011;46889;37.310;13.582;2022-10-30T03:13:05;15.70;;;5.82;;
61003;SDS011;46889;37.310;13.582;2022-10-30T03:15:31;12.50;;;5.37;;
61003;SDS011;46889;37.310;13.582;2022-10-30T03:17:58;17.40;;;6.38;;
61003;SDS011;46889;37.310;13.582;2022-10-30T03:22:50;12.82;;;5.38;;
61003;SDS011;46889;37.310;13.582;2022-10-30T03:25:17;15.10;;;5.28;;
61003;SDS011;46889;37.310;13.582;2022-10-30T03:27:48;13.32;;;5.20;;
61003;SDS011;46889;37.310;13.582;2022-10-30T03:30:15;14.77;;;5.28;;
61003;SDS011;46889;37.310;13.582;2022-10-30T03:32:41;16.33;;;5.78;;
61003;SDS011;46889;37.310;13.582;2022-10-30T03:35:07;15.55;;;5.00;;
61003;SDS011;46889;37.310;13.582;2022-10-30T03:37:33;11.23;;;5.15;;
61003;SDS011;46889;37.310;13.582;2022-10-30T03:39:59;11.27;;;4.93;;
61003;SDS011;46889;37.310;13.582;2022-10-30T03:42:25;13.83;;;5.93;;
61003;SDS011;46889;37.310;13.582;2022-10-30T03:44:51;8.50;;;4.10;;
61003;SDS011;46889;37.310;13.582;2022-10-30T03:47:17;13.83;;;5.17;;
61003;SDS011;46889;37.310;13.582;2022-10-30T03:49:43;13.07;;;4.90;;
61003;SDS011;46889;37.310;13.582;2022-10-30T03:52:09;14.70;;;5.30;;
61003;SDS011;46889;37.310;13.582;2022-10-30T03:54:35;14.90;;;5.57;;
61003;SDS011;46889;37.310;13.582;2022-10-30T03:57:02;11.05;;;5.40;;
61003;SDS011;46889;37.310;13.582;2022-10-30T03:59:28;9.20;;;4.93;;
61003;SDS011;46889;37.310;13.582;2022-10-30T04:01:54;13.50;;;6.05;;
61003;SDS011;46889;37.310;13.582;2022-10-30T04:04:20;14.95;;;5.35;;
61003;SDS011;46889;37.310;13.582;2022-10-30T04:06:46;12.37;;;4.70;;
61003;SDS011;46889;37.310;13.582;2022-10-30T04:09:13;16.20;;;5.72;;
61003;SDS011;46889;37.310;13.582;2022-10-30T04:11:39;12.30;;;5.33;;
61003;SDS011;46889;37.310;13.582;2022-10-30T04:14:05;12.57;;;5.68;;
61003;SDS011;46889;37.310;13.582;2022-10-30T04:16:31;16.05;;;5.50;;
61003;SDS011;46889;37.310;13.582;2022-10-30T04:18:57;10.93;;;5.13;;
61003;SDS011;46889;37.310;13.582;2022-10-30T04:21:23;18.33;;;5.10;;
61003;SDS011;46889;37.310;13.582;2022-10-30T04:23:49;12.70;;;4.82;;
61003;SDS011;46889;37.310;13.582;2022-10-30T04:26:17;16.27;;;5.38;;
61003;SDS011;46889;37.310;13.582;2022-10-30T04:28:43;15.18;;;4.85;;
61003;SDS011;46889;37.310;13.582;2022-10-30T04:31:09;15.07;;;5.45;;
61003;SDS011;46889;37.310;13.582;2022-10-30T04:33:35;18.30;;;5.63;;
61003;SDS011;46889;37.310;13.582;2022-10-30T04:36:01;14.70;;;5.72;;
61003;SDS011;46889;37.310;13.582;2022-10-30T04:38:27;11.25;;;5.63;;
61003;SDS011;46889;37.310;13.582;2022-10-30T04:40:54;14.40;;;5.75;;
61003;SDS011;46889;37.310;13.582;2022-10-30T04:43:20;18.53;;;5.00;;
61003;SDS011;46889;37.310;13.582;2022-10-30T04:45:48;14.20;;;5.72;;
61003;SDS011;46889;37.310;13.582;2022-10-30T04:48:15;14.87;;;5.73;;
61003;SDS011;46889;37.310;13.582;2022-10-30T04:50:42;15.77;;;5.20;;
61003;SDS011;46889;37.310;13.582;2022-10-30T04:53:12;17.00;;;5.78;;
61003;SDS011;46889;37.310;13.582;2022-10-30T04:55:40;12.25;;;5.00;;
61003;SDS011;46889;37.310;13.582;2022-10-30T04:58:08;13.02;;;5.28;;
61003;SDS011;46889;37.310;13.582;2022-10-30T05:00:36;17.52;;;6.47;;
61003;SDS011;46889;37.310;13.582;2022-10-30T05:03:03;15.73;;;5.68;;
61003;SDS011;46889;37.310;13.582;2022-10-30T05:07:58;10.85;;;5.22;;
61003;SDS011;46889;37.310;13.582;2022-10-30T05:10:24;14.83;;;5.73;;
61003;SDS011;46889;37.310;13.582;2022-10-30T05:12:51;14.30;;;6.30;;
61003;SDS011;46889;37.310;13.582;2022-10-30T05:15:19;14.23;;;5.85;;
61003;SDS011;46889;37.310;13.582;2022-10-30T05:17:45;17.67;;;5.72;;
61003;SDS011;46889;37.310;13.582;2022-10-30T05:20:18;14.55;;;6.47;;
61003;SDS011;46889;37.310;13.582;2022-10-30T05:22:45;13.48;;;5.65;;
61003;SDS011;46889;37.310;13.582;2022-10-30T05:25:17;20.75;;;5.53;;
61003;SDS011;46889;37.310;13.582;2022-10-30T05:27:43;16.53;;;5.73;;
61003;SDS011;46889;37.310;13.582;2022-10-30T05:30:10;19.37;;;6.60;;
61003;SDS011;46889;37.310;13.582;2022-10-30T05:32:36;12.35;;;5.40;;
61003;SDS011;46889;37.310;13.582;2022-10-30T05:35:03;12.63;;;5.77;;
61003;SDS011;46889;37.310;13.582;2022-10-30T05:37:29;13.32;;;5.00;;
61003;SDS011;46889;37.310;13.582;2022-10-30T05:39:55;12.07;;;4.85;;
61003;SDS011;46889;37.310;13.582;2022-10-30T05:42:21;13.50;;;4.77;;
61003;SDS011;46889;37.310;13.582;2022-10-30T05:44:47;17.00;;;4.93;;
61003;SDS011;46889;37.310;13.582;2022-10-30T05:47:13;16.05;;;5.10;;
61003;SDS011;46889;37.310;13.582;2022-10-30T05:49:39;16.45;;;4.88;;
61003;SDS011;46889;37.310;13.582;2022-10-30T05:52:05;12.05;;;5.13;;
61003;SDS011;46889;37.310;13.582;2022-10-30T05:54:32;17.17;;;4.93;;
61003;SDS011;46889;37.310;13.582;2022-10-30T05:56:58;12.00;;;4.25;;
61003;SDS011;46889;37.310;13.582;2022-10-30T05:59:25;10.57;;;4.77;;
61003;SDS011;46889;37.310;13.582;2022-10-30T06:01:51;9.23;;;4.38;;
61003;SDS011;46889;37.310;13.582;2022-10-30T06:04:17;12.82;;;4.40;;
61003;SDS011;46889;37.310;13.582;2022-10-30T06:06:43;11.53;;;4.87;;
61003;SDS011;46889;37.310;13.582;2022-10-30T06:09:09;13.02;;;5.03;;
61003;SDS011;46889;37.310;13.582;2022-10-30T06:11:36;11.73;;;4.53;;
61003;SDS011;46889;37.310;13.582;2022-10-30T06:14:02;15.15;;;5.38;;
61003;SDS011;46889;37.310;13.582;2022-10-30T06:16:28;14.85;;;4.43;;
61003;SDS011;46889;37.310;13.582;2022-10-30T06:18:58;12.93;;;4.45;;
61003;SDS011;46889;37.310;13.582;2022-10-30T06:21:26;13.10;;;4.45;;
61003;SDS011;46889;37.310;13.582;2022-10-30T06:23:52;10.02;;;4.32;;
61003;SDS011;46889;37.310;13.582;2022-10-30T06:26:20;19.05;;;5.13;;
61003;SDS011;46889;37.310;13.582;2022-10-30T06:33:39;11.02;;;4.40;;
61003;SDS011;46889;37.310;13.582;2022-10-30T06:36:05;11.25;;;4.90;;
61003;SDS011;46889;37.310;13.582;2022-10-30T06:38:32;12.95;;;4.95;;
61003;SDS011;46889;37.310;13.582;2022-10-30T06:40:59;14.38;;;4.93;;
61003;SDS011;46889;37.310;13.582;2022-10-30T06:43:26;13.57;;;5.30;;
61003;SDS011;46889;37.310;13.582;2022-10-30T06:45:52;12.73;;;5.60;;
61003;SDS011;46889;37.310;13.582;2022-10-30T06:48:21;15.00;;;4.72;;
61003;SDS011;46889;37.310;13.582;2022-10-30T06:50:57;12.70;;;5.50;;
61003;SDS011;46889;37.310;13.582;2022-10-30T06:53:25;22.63;;;5.05;;
61003;SDS011;46889;37.310;13.582;2022-10-30T06:55:55;13.52;;;5.45;;
61003;SDS011;46889;37.310;13.582;2022-10-30T06:58:22;13.32;;;5.45;;
61003;SDS011;46889;37.310;13.582;2022-10-30T07:00:49;17.42;;;5.45;;
61003;SDS011;46889;37.310;13.582;2022-10-30T07:03:15;13.68;;;5.32;;
61003;SDS011;46889;37.310;13.582;2022-10-30T07:05:41;26.13;;;5.60;;
61003;SDS011;46889;37.310;13.582;2022-10-30T07:08:08;15.25;;;5.47;;
61003;SDS011;46889;37.310;13.582;2022-10-30T07:10:35;11.93;;;5.05;;
61003;SDS011;46889;37.310;13.582;2022-10-30T07:13:01;19.05;;;5.13;;
61003;SDS011;46889;37.310;13.582;2022-10-30T07:15:28;13.88;;;5.18;;
61003;SDS011;46889;37.310;13.582;2022-10-30T07:17:58;18.20;;;5.30;;
61003;SDS011;46889;37.310;13.582;2022-10-30T07:20:27;15.80;;;4.90;;
61003;SDS011;46889;37.310;13.582;2022-10-30T07:22:55;11.00;;;4.55;;
61003;SDS011;46889;37.310;13.582;2022-10-30T07:25:21;17.25;;;6.22;;
61003;SDS011;46889;37.310;13.582;2022-10-30T07:27:48;13.75;;;4.90;;
61003;SDS011;46889;37.310;13.582;2022-10-30T07:30:17;15.13;;;4.95;;
61003;SDS011;46889;37.310;13.582;2022-10-30T07:32:55;14.98;;;4.28;;
61003;SDS011;46889;37.310;13.582;2022-10-30T07:35:22;24.02;;;5.35;;
61003;SDS011;46889;37.310;13.582;2022-10-30T07:37:49;19.00;;;5.60;;
61003;SDS011;46889;37.310;13.582;2022-10-30T07:40:15;18.90;;;5.22;;
61003;SDS011;46889;37.310;13.582;2022-10-30T07:42:44;15.25;;;5.38;;
61003;SDS011;46889;37.310;13.582;2022-10-30T07:45:11;14.65;;;5.10;;
61003;SDS011;46889;37.310;13.582;2022-10-30T07:47:41;12.57;;;5.20;;
61003;SDS011;46889;37.310;13.582;2022-10-30T07:50:08;17.40;;;5.57;;
61003;SDS011;46889;37.310;13.582;2022-10-30T07:52:35;18.48;;;5.68;;
61003;SDS011;46889;37.310;13.582;2022-10-30T07:55:02;19.45;;;6.15;;
61003;SDS011;46889;37.310;13.582;2022-10-30T07:57:39;17.80;;;6.22;;
61003;SDS011;46889;37.310;13.582;2022-10-30T08:00:08;17.90;;;6.38;;
61003;SDS011;46889;37.310;13.582;2022-10-30T08:02:36;15.85;;;6.82;;
61003;SDS011;46889;37.310;13.582;2022-10-30T08:05:03;18.98;;;6.38;;
61003;SDS011;46889;37.310;13.582;2022-10-30T08:07:30;17.85;;;6.90;;
61003;SDS011;46889;37.310;13.582;2022-10-30T08:09:57;15.88;;;6.68;;
61003;SDS011;46889;37.310;13.582;2022-10-30T08:12:24;15.70;;;7.13;;
61003;SDS011;46889;37.310;13.582;2022-10-30T08:14:52;22.60;;;6.95;;
61003;SDS011;46889;37.310;13.582;2022-10-30T08:17:19;19.35;;;7.07;;
61003;SDS011;46889;37.310;13.582;2022-10-30T08:19:46;17.98;;;6.63;;
61003;SDS011;46889;37.310;13.582;2022-10-30T08:22:13;15.00;;;6.82;;
61003;SDS011;46889;37.310;13.582;2022-10-30T08:24:39;20.05;;;7.25;;
61003;SDS011;46889;37.310;13.582;2022-10-30T08:27:06;18.65;;;6.47;;
61003;SDS011;46889;37.310;13.582;2022-10-30T08:29:32;13.48;;;6.15;;
61003;SDS011;46889;37.310;13.582;2022-10-30T08:32:01;21.02;;;6.80;;
61003;SDS011;46889;37.310;13.582;2022-10-30T08:34:32;15.85;;;5.97;;
61003;SDS011;46889;37.310;13.582;2022-10-30T08:37:00;16.20;;;5.78;;
61003;SDS011;46889;37.310;13.582;2022-10-30T08:39:26;13.82;;;5.55;;
61003;SDS011;46889;37.310;13.582;2022-10-30T08:41:57;15.02;;;5.43;;
61003;SDS011;46889;37.310;13.582;2022-10-30T08:44:25;13.57;;;4.97;;
61003;SDS011;46889;37.310;13.582;2022-10-30T08:46:51;18.23;;;5.97;;
61003;SDS011;46889;37.310;13.582;2022-10-30T08:49:17;15.27;;;5.15;;
61003;SDS011;46889;37.310;13.582;2022-10-30T08:54:10;16.67;;;5.03;;
61003;SDS011;46889;37.310;13.582;2022-10-30T08:56:37;20.90;;;7.75;;
61003;SDS011;46889;37.310;13.582;2022-10-30T08:59:04;14.93;;;5.03;;
61003;SDS011;46889;37.310;13.582;2022-10-30T09:01:30;13.25;;;4.88;;
61003;SDS011;46889;37.310;13.582;2022-10-30T09:03:56;14.55;;;4.65;;
61003;SDS011;46889;37.310;13.582;2022-10-30T09:06:22;18.80;;;5.22;;
61003;SDS011;46889;37.310;13.582;2022-10-30T09:08:52;16.98;;;5.00;;
61003;SDS011;46889;37.310;13.582;2022-10-30T09:11:21;13.38;;;4.60;;
61003;SDS011;46889;37.310;13.582;2022-10-30T09:13:47;20.35;;;5.25;;
61003;SDS011;46889;37.310;13.582;2022-10-30T09:16:13;21.05;;;5.10;;
61003;SDS011;46889;37.310;13.582;2022-10-30T09:18:40;17.33;;;5.18;;
61003;SDS011;46889;37.310;13.582;2022-10-30T09:21:07;17.77;;;5.53;;
61003;SDS011;46889;37.310;13.582;2022-10-30T09:23:37;14.48;;;4.72;;
61003;SDS011;46889;37.310;13.582;2022-10-30T09:26:06;18.67;;;5.30;;
61003;SDS011;46889;37.310;13.582;2022-10-30T09:28:33;16.10;;;4.88;;
61003;SDS011;46889;37.310;13.582;2022-10-30T09:33:25;12.40;;;4.68;;
61003;SDS011;46889;37.310;13.582;2022-10-30T09:38:18;13.55;;;3.95;;
61003;SDS011;46889;37.310;13.582;2022-10-30T09:46:58;15.38;;;4.45;;
61003;SDS011;46889;37.310;13.582;2022-10-30T09:49:50;11.68;;;4.13;;
61003;SDS011;46889;37.310;13.582;2022-10-30T09:52:45;12.15;;;3.83;;
61003;SDS011;46889;37.310;13.582;2022-10-30T09:58:05;18.58;;;5.78;;
61003;SDS011;46889;37.310;13.582;2022-10-30T10:01:04;14.68;;;5.45;;
61003;SDS011;46889;37.310;13.582;2022-10-30T10:11:47;22.20;;;6.18;;
61003;SDS011;46889;37.310;13.582;2022-10-30T10:14:34;16.08;;;5.70;;
61003;SDS011;46889;37.310;13.582;2022-10-30T10:17:04;13.98;;;5.25;;
61003;SDS011;46889;37.310;13.582;2022-10-30T10:19:38;22.65;;;6.13;;
61003;SDS011;46889;37.310;13.582;2022-10-30T10:22:32;14.77;;;5.22;;
61003;SDS011;46889;37.310;13.582;2022-10-30T10:25:10;15.40;;;5.07;;
61003;SDS011;46889;37.310;13.582;2022-10-30T10:30:18;18.50;;;5.53;;
61003;SDS011;46889;37.310;13.582;2022-10-30T10:33:08;18.05;;;5.20;;
61003;SDS011;46889;37.310;13.582;2022-10-30T10:41:46;19.63;;;5.75;;
61003;SDS011;46889;37.310;13.582;2022-10-30T10:47:59;24.05;;;5.75;;
61003;SDS011;46889;37.310;13.582;2022-10-30T10:50:47;14.23;;;4.95;;
61003;SDS011;46889;37.310;13.582;2022-10-30T10:53:18;16.38;;;5.75;;
61003;SDS011;46889;37.310;13.582;2022-10-30T10:59:15;18.58;;;4.97;;
61003;SDS011;46889;37.310;13.582;2022-10-30T11:04:39;20.05;;;5.32;;
61003;SDS011;46889;37.310;13.582;2022-10-30T11:09:50;19.73;;;5.60;;
61003;SDS011;46889;37.310;13.582;2022-10-30T11:12:24;21.42;;;5.38;;
61003;SDS011;46889;37.310;13.582;2022-10-30T11:17:51;22.10;;;5.32;;
61003;SDS011;46889;37.310;13.582;2022-10-30T11:20:28;21.52;;;5.35;;
61003;SDS011;46889;37.310;13.582;2022-10-30T11:25:55;17.17;;;4.93;;
61003;SDS011;46889;37.310;13.582;2022-10-30T11:28:30;20.83;;;5.80;;
61003;SDS011;46889;37.310;13.582;2022-10-30T11:31:19;16.50;;;4.68;;
61003;SDS011;46889;37.310;13.582;2022-10-30T11:41:47;20.83;;;5.38;;
61003;SDS011;46889;37.310;13.582;2022-10-30T11:44:19;16.92;;;4.90;;
61003;SDS011;46889;37.310;13.582;2022-10-30T11:46:46;18.38;;;4.20;;
61003;SDS011;46889;37.310;13.582;2022-10-30T11:52:36;17.55;;;4.85;;
61003;SDS011;46889;37.310;13.582;2022-10-30T11:55:25;20.05;;;4.90;;
61003;SDS011;46889;37.310;13.582;2022-10-30T11:58:01;17.25;;;5.30;;
61003;SDS011;46889;37.310;13.582;2022-10-30T12:00:31;17.67;;;4.32;;
61003;SDS011;46889;37.310;13.582;2022-10-30T12:03:00;17.15;;;4.72;;
61003;SDS011;46889;37.310;13.582;2022-10-30T12:08:40;17.10;;;4.70;;
61003;SDS011;46889;37.310;13.582;2022-10-30T12:13:21;19.67;;;4.85;;
61003;SDS011;46889;37.310;13.582;2022-10-30T12:16:01;12.27;;;3.95;;
61003;SDS011;46889;37.310;13.582;2022-10-30T12:21:29;19.52;;;5.90;;
61003;SDS011;46889;37.310;13.582;2022-10-30T12:24:04;17.40;;;5.53;;
61003;SDS011;46889;37.310;13.582;2022-10-30T12:26:36;22.77;;;5.63;;
61003;SDS011;46889;37.310;13.582;2022-10-30T12:29:05;20.15;;;5.60;;
61003;SDS011;46889;37.310;13.582;2022-10-30T12:31:38;13.43;;;4.20;;
61003;SDS011;46889;37.310;13.582;2022-10-30T12:37:09;18.02;;;4.32;;
61003;SDS011;46889;37.310;13.582;2022-10-30T12:42:47;19.83;;;4.50;;
61003;SDS011;46889;37.310;13.582;2022-10-30T12:45:25;16.92;;;4.53;;
61003;SDS011;46889;37.310;13.582;2022-10-30T12:56:27;18.42;;;4.57;;
61003;SDS011;46889;37.310;13.582;2022-10-30T13:01:35;18.40;;;4.82;;
61003;SDS011;46889;37.310;13.582;2022-10-30T13:04:14;19.42;;;4.60;;
61003;SDS011;46889;37.310;13.582;2022-10-30T13:07:03;15.93;;;4.35;;
61003;SDS011;46889;37.310;13.582;2022-10-30T13:09:37;19.10;;;4.63;;
61003;SDS011;46889;37.310;13.582;2022-10-30T13:12:21;13.32;;;4.35;;
61003;SDS011;46889;37.310;13.582;2022-10-30T13:14:55;19.85;;;4.40;;
61003;SDS011;46889;37.310;13.582;2022-10-30T13:17:28;12.60;;;4.15;;
61003;SDS011;46889;37.310;13.582;2022-10-30T13:19:54;17.33;;;4.45;;
61003;SDS011;46889;37.310;13.582;2022-10-30T13:22:28;18.40;;;4.05;;
61003;SDS011;46889;37.310;13.582;2022-10-30T13:25:13;16.33;;;4.18;;
61003;SDS011;46889;37.310;13.582;2022-10-30T13:30:13;18.42;;;4.50;;
61003;SDS011;46889;37.310;13.582;2022-10-30T13:32:49;18.60;;;4.78;;
61003;SDS011;46889;37.310;13.582;2022-10-30T13:38:35;16.55;;;4.43;;
61003;SDS011;46889;37.310;13.582;2022-10-30T13:46:51;17.15;;;4.75;;
61003;SDS011;46889;37.310;13.582;2022-10-30T13:52:12;16.70;;;4.60;;
61003;SDS011;46889;37.310;13.582;2022-10-30T13:54:58;17.15;;;4.78;;
61003;SDS011;46889;37.310;13.582;2022-10-30T13:57:33;17.00;;;4.22;;
61003;SDS011;46889;37.310;13.582;2022-10-30T14:03:44;12.88;;;4.28;;
61003;SDS011;46889;37.310;13.582;2022-10-30T14:06:27;14.45;;;3.97;;
61003;SDS011;46889;37.310;13.582;2022-10-30T14:09:05;17.27;;;4.38;;
61003;SDS011;46889;37.310;13.582;2022-10-30T14:14:29;17.17;;;4.78;;
61003;SDS011;46889;37.310;13.582;2022-10-30T14:19:32;12.80;;;4.85;;
61003;SDS011;46889;37.310;13.582;2022-10-30T14:22:30;10.60;;;4.22;;
61003;SDS011;46889;37.310;13.582;2022-10-30T14:24:58;15.40;;;4.25;;
61003;SDS011;46889;37.310;13.582;2022-10-30T14:27:31;14.02;;;4.15;;
61003;SDS011;46889;37.310;13.582;2022-10-30T14:29:58;15.65;;;4.18;;
61003;SDS011;46889;37.310;13.582;2022-10-30T14:37:17;13.88;;;3.92;;
61003;SDS011;46889;37.310;13.582;2022-10-30T14:42:51;20.20;;;4.50;;
61003;SDS011;46889;37.310;13.582;2022-10-30T14:45:26;13.10;;;4.13;;
61003;SDS011;46889;37.310;13.582;2022-10-30T14:48:27;16.17;;;4.63;;
61003;SDS011;46889;37.310;13.582;2022-10-30T14:51:18;13.00;;;3.95;;
61003;SDS011;46889;37.310;13.582;2022-10-30T14:54:08;10.02;;;3.28;;
61003;SDS011;46889;37.310;13.582;2022-10-30T14:56:48;14.75;;;3.92;;
61003;SDS011;46889;37.310;13.582;2022-10-30T15:01:56;15.80;;;4.40;;
61003;SDS011;46889;37.310;13.582;2022-10-30T15:04:48;17.02;;;4.47;;
61003;SDS011;46889;37.310;13.582;2022-10-30T15:07:37;11.05;;;4.05;;
61003;SDS011;46889;37.310;13.582;2022-10-30T15:10:34;9.65;;;4.00;;
61003;SDS011;46889;37.310;13.582;2022-10-30T15:15:35;13.45;;;3.83;;
61003;SDS011;46889;37.310;13.582;2022-10-30T15:18:09;18.35;;;5.10;;
61003;SDS011;46889;37.310;13.582;2022-10-30T15:20:48;19.20;;;5.25;;
61003;SDS011;46889;37.310;13.582;2022-10-30T15:23:18;19.08;;;5.47;;
61003;SDS011;46889;37.310;13.582;2022-10-30T15:25:51;17.00;;;7.60;;
61003;SDS011;46889;37.310;13.582;2022-10-30T15:28:21;20.83;;;5.75;;
61003;SDS011;46889;37.310;13.582;2022-10-30T15:30:59;19.67;;;5.00;;
61003;SDS011;46889;37.310;13.582;2022-10-30T15:33:25;18.65;;;5.47;;
61003;SDS011;46889;37.310;13.582;2022-10-30T15:35:52;15.52;;;5.40;;
61003;SDS011;46889;37.310;13.582;2022-10-30T15:38:19;15.20;;;5.15;;
61003;SDS011;46889;37.310;13.582;2022-10-30T15:40:46;24.05;;;6.28;;
61003;SDS011;46889;37.310;13.582;2022-10-30T15:45:42;14.43;;;5.32;;
61003;SDS011;46889;37.310;13.582;2022-10-30T15:48:21;19.50;;;6.60;;
61003;SDS011;46889;37.310;13.582;2022-10-30T15:50:58;17.83;;;6.80;;
61003;SDS011;46889;37.310;13.582;2022-10-30T15:53:34;20.60;;;6.40;;
61003;SDS011;46889;37.310;13.582;2022-10-30T15:58:49;18.75;;;5.60;;
61003;SDS011;46889;37.310;13.582;2022-10-30T16:01:41;19.95;;;6.45;;
61003;SDS011;46889;37.310;13.582;2022-10-30T16:04:15;15.52;;;5.60;;
61003;SDS011;46889;37.310;13.582;2022-10-30T16:06:56;20.17;;;5.97;;
61003;SDS011;46889;37.310;13.582;2022-10-30T16:09:26;18.63;;;6.55;;
61003;SDS011;46889;37.310;13.582;2022-10-30T16:11:54;23.08;;;6.65;;
61003;SDS011;46889;37.310;13.582;2022-10-30T16:14:27;17.00;;;6.28;;
61003;SDS011;46889;37.310;13.582;2022-10-30T16:16:59;18.85;;;6.53;;
61003;SDS011;46889;37.310;13.582;2022-10-30T16:19:28;17.60;;;6.35;;
61003;SDS011;46889;37.310;13.582;2022-10-30T16:21:58;21.05;;;6.10;;
61003;SDS011;46889;37.310;13.582;2022-10-30T16:24:25;20.00;;;6.70;;
61003;SDS011;46889;37.310;13.582;2022-10-30T16:27:03;20.17;;;6.00;;
61003;SDS011;46889;37.310;13.582;2022-10-30T16:29:32;17.95;;;6.53;;
61003;SDS011;46889;37.310;13.582;2022-10-30T16:32:01;26.50;;;6.72;;
61003;SDS011;46889;37.310;13.582;2022-10-30T16:34:28;23.67;;;7.00;;
61003;SDS011;46889;37.310;13.582;2022-10-30T16:37:00;18.35;;;6.93;;
61003;SDS011;46889;37.310;13.582;2022-10-30T16:39:28;20.35;;;7.05;;
61003;SDS011;46889;37.310;13.582;2022-10-30T16:41:59;16.80;;;6.95;;
61003;SDS011;46889;37.310;13.582;2022-10-30T16:44:49;21.35;;;6.93;;
61003;SDS011;46889;37.310;13.582;2022-10-30T16:47:28;23.73;;;6.95;;
61003;SDS011;46889;37.310;13.582;2022-10-30T16:52:25;26.73;;;7.38;;
61003;SDS011;46889;37.310;13.582;2022-10-30T16:55:00;22.60;;;7.28;;
61003;SDS011;46889;37.310;13.582;2022-10-30T16:57:34;23.50;;;6.95;;
61003;SDS011;46889;37.310;13.582;2022-10-30T17:00:02;24.40;;;7.72;;
61003;SDS011;46889;37.310;13.582;2022-10-30T17:02:32;18.92;;;6.45;;
61003;SDS011;46889;37.310;13.582;2022-10-30T17:07:34;23.58;;;7.82;;
61003;SDS011;46889;37.310;13.582;2022-10-30T17:10:03;21.85;;;7.60;;
61003;SDS011;46889;37.310;13.582;2022-10-30T17:18:42;19.95;;;7.03;;
61003;SDS011;46889;37.310;13.582;2022-10-30T17:21:10;18.05;;;6.97;;
61003;SDS011;46889;37.310;13.582;2022-10-30T17:23:50;22.48;;;7.05;;
61003;SDS011;46889;37.310;13.582;2022-10-30T17:26:20;18.52;;;6.30;;
61003;SDS011;46889;37.310;13.582;2022-10-30T17:28:46;23.00;;;7.13;;
61003;SDS011;46889;37.310;13.582;2022-10-30T17:33:46;20.88;;;7.63;;
61003;SDS011;46889;37.310;13.582;2022-10-30T17:36:27;17.83;;;7.05;;
61003;SDS011;46889;37.310;13.582;2022-10-30T17:38:56;22.40;;;7.28;;
61003;SDS011;46889;37.310;13.582;2022-10-30T17:41:22;21.02;;;7.65;;
61003;SDS011;46889;37.310;13.582;2022-10-30T17:43:52;26.45;;;10.68;;
61003;SDS011;46889;37.310;13.582;2022-10-30T17:46:20;18.80;;;8.10;;
61003;SDS011;46889;37.310;13.582;2022-10-30T17:48:48;22.42;;;7.65;;